sensor_id;sensor_type;location;lat;lon;timestamp;temperature;humidity
2174;DHT22;1093;51.424;11.764;2022-07-29T00:00:52;17.30;1.40
2174;DHT22;1093;51.424;11.764;2022-07-29T00:03:19;17.20;1.40
2174;DHT22;1093;51.424;11.764;2022-07-29T00:05:45;17.20;1.40
2174;DHT22;1093;51.424;11.764;2022-07-29T00:08:12;17.20;1.40
2174;DHT22;1093;51.424;11.764;2022-07-29T00:10:41;17.20;1.40
2174;DHT22;1093;51.424;11.764;2022-07-29T00:13:08;17.20;1.40
2174;DHT22;1093;51.424;11.764;2022-07-29T00:15:35;17.20;1.40
2174;DHT22;1093;51.424;11.764;2022-07-29T00:18:03;17.30;1.40
2174;DHT22;1093;51.424;11.764;2022-07-29T00:20:30;17.30;1.40
2174;DHT22;1093;51.424;11.764;2022-07-29T00:22:57;17.30;1.40
2174;DHT22;1093;51.424;11.764;2022-07-29T00:25:24;17.30;1.40
2174;DHT22;1093;51.424;11.764;2022-07-29T00:27:51;17.30;1.40
2174;DHT22;1093;51.424;11.764;2022-07-29T00:30:18;17.30;1.40
2174;DHT22;1093;51.424;11.764;2022-07-29T00:32:45;17.30;1.40
2174;DHT22;1093;51.424;11.764;2022-07-29T00:35:13;17.30;1.40
2174;DHT22;1093;51.424;11.764;2022-07-29T00:37:57;17.20;1.40
2174;DHT22;1093;51.424;11.764;2022-07-29T00:40:24;17.30;1.40
2174;DHT22;1093;51.424;11.764;2022-07-29T00:42:52;17.20;1.40
2174;DHT22;1093;51.424;11.764;2022-07-29T00:45:19;17.20;1.40
2174;DHT22;1093;51.424;11.764;2022-07-29T00:47:47;17.20;1.40
2174;DHT22;1093;51.424;11.764;2022-07-29T00:50:15;17.20;1.40
2174;DHT22;1093;51.424;11.764;2022-07-29T00:52:43;17.10;1.40
2174;DHT22;1093;51.424;11.764;2022-07-29T00:55:11;17.10;1.40
2174;DHT22;1093;51.424;11.764;2022-07-29T00:57:38;17.10;1.40
2174;DHT22;1093;51.424;11.764;2022-07-29T01:00:09;17.10;1.40
2174;DHT22;1093;51.424;11.764;2022-07-29T01:02:36;17.10;1.40
2174;DHT22;1093;51.424;11.764;2022-07-29T01:05:04;17.10;1.40
2174;DHT22;1093;51.424;11.764;2022-07-29T01:07:34;17.10;1.40
2174;DHT22;1093;51.424;11.764;2022-07-29T01:10:02;17.00;1.40
2174;DHT22;1093;51.424;11.764;2022-07-29T01:12:30;17.10;1.40
2174;DHT22;1093;51.424;11.764;2022-07-29T01:15:00;17.00;1.40
2174;DHT22;1093;51.424;11.764;2022-07-29T01:17:33;17.00;1.40
2174;DHT22;1093;51.424;11.764;2022-07-29T01:20:05;17.00;1.40
2174;DHT22;1093;51.424;11.764;2022-07-29T01:25:46;16.90;1.40
2174;DHT22;1093;51.424;11.764;2022-07-29T01:28:46;16.90;1.40
2174;DHT22;1093;51.424;11.764;2022-07-29T01:31:16;16.80;1.40
2174;DHT22;1093;51.424;11.764;2022-07-29T01:33:45;16.80;1.40
2174;DHT22;1093;51.424;11.764;2022-07-29T01:36:20;16.80;1.40
2174;DHT22;1093;51.424;11.764;2022-07-29T01:39:07;16.80;1.40
2174;DHT22;1093;51.424;11.764;2022-07-29T01:41:37;16.70;1.40
2174;DHT22;1093;51.424;11.764;2022-07-29T01:44:12;16.70;1.40
2174;DHT22;1093;51.424;11.764;2022-07-29T01:46:45;16.70;1.40
2174;DHT22;1093;51.424;11.764;2022-07-29T01:49:18;16.70;1.40
2174;DHT22;1093;51.424;11.764;2022-07-29T01:51:50;16.70;1.40
2174;DHT22;1093;51.424;11.764;2022-07-29T01:54:21;16.70;1.40
2174;DHT22;1093;51.424;11.764;2022-07-29T01:56:51;16.80;1.40
2174;DHT22;1093;51.424;11.764;2022-07-29T01:59:22;16.80;1.40
2174;DHT22;1093;51.424;11.764;2022-07-29T02:01:52;16.70;1.40
2174;DHT22;1093;51.424;11.764;2022-07-29T02:04:20;16.80;1.40
2174;DHT22;1093;51.424;11.764;2022-07-29T02:06:49;16.70;1.40
2174;DHT22;1093;51.424;11.764;2022-07-29T02:09:17;16.70;1.40
2174;DHT22;1093;51.424;11.764;2022-07-29T02:11:49;16.70;1.40
2174;DHT22;1093;51.424;11.764;2022-07-29T02:14:18;16.70;1.40
2174;DHT22;1093;51.424;11.764;2022-07-29T02:16:47;16.80;1.40
2174;DHT22;1093;51.424;11.764;2022-07-29T02:19:15;16.80;1.40
2174;DHT22;1093;51.424;11.764;2022-07-29T02:21:44;16.80;1.40
2174;DHT22;1093;51.424;11.764;2022-07-29T02:24:12;16.70;1.40
2174;DHT22;1093;51.424;11.764;2022-07-29T02:26:41;16.70;1.40
2174;DHT22;1093;51.424;11.764;2022-07-29T02:29:10;16.60;1.40
2174;DHT22;1093;51.424;11.764;2022-07-29T02:31:39;16.60;1.40
2174;DHT22;1093;51.424;11.764;2022-07-29T02:34:11;16.60;1.40
2174;DHT22;1093;51.424;11.764;2022-07-29T02:36:39;16.50;1.40
2174;DHT22;1093;51.424;11.764;2022-07-29T02:39:08;16.50;1.40
2174;DHT22;1093;51.424;11.764;2022-07-29T02:41:40;16.40;1.40
2174;DHT22;1093;51.424;11.764;2022-07-29T02:44:10;16.40;1.40
2174;DHT22;1093;51.424;11.764;2022-07-29T02:46:43;16.40;1.40
2174;DHT22;1093;51.424;11.764;2022-07-29T02:49:16;16.50;1.40
2174;DHT22;1093;51.424;11.764;2022-07-29T02:51:46;16.50;1.40
2174;DHT22;1093;51.424;11.764;2022-07-29T02:54:24;16.60;1.40
2174;DHT22;1093;51.424;11.764;2022-07-29T02:56:53;16.50;1.40
2174;DHT22;1093;51.424;11.764;2022-07-29T02:59:24;16.50;1.40
2174;DHT22;1093;51.424;11.764;2022-07-29T03:01:52;16.40;1.40
2174;DHT22;1093;51.424;11.764;2022-07-29T03:04:23;16.30;1.40
2174;DHT22;1093;51.424;11.764;2022-07-29T03:06:51;16.30;1.40
2174;DHT22;1093;51.424;11.764;2022-07-29T03:09:19;16.30;1.40
2174;DHT22;1093;51.424;11.764;2022-07-29T03:11:47;16.30;1.40
2174;DHT22;1093;51.424;11.764;2022-07-29T03:14:14;16.30;1.40
2174;DHT22;1093;51.424;11.764;2022-07-29T03:16:42;16.30;1.40
2174;DHT22;1093;51.424;11.764;2022-07-29T03:19:09;16.20;1.40
2174;DHT22;1093;51.424;11.764;2022-07-29T03:21:37;16.20;1.40
2174;DHT22;1093;51.424;11.764;2022-07-29T03:24:04;16.20;1.40
2174;DHT22;1093;51.424;11.764;2022-07-29T03:26:31;16.20;1.40
2174;DHT22;1093;51.424;11.764;2022-07-29T03:28:58;16.20;1.40
2174;DHT22;1093;51.424;11.764;2022-07-29T03:31:25;16.20;1.40
2174;DHT22;1093;51.424;11.764;2022-07-29T03:33:51;16.10;1.40
2174;DHT22;1093;51.424;11.764;2022-07-29T03:36:18;16.10;1.40
2174;DHT22;1093;51.424;11.764;2022-07-29T03:38:47;16.10;1.40
2174;DHT22;1093;51.424;11.764;2022-07-29T03:41:14;16.10;1.40
2174;DHT22;1093;51.424;11.764;2022-07-29T03:43:43;16.00;1.40
2174;DHT22;1093;51.424;11.764;2022-07-29T03:46:11;16.00;1.40
2174;DHT22;1093;51.424;11.764;2022-07-29T03:48:44;16.00;1.40
2174;DHT22;1093;51.424;11.764;2022-07-29T03:51:13;16.00;1.40
2174;DHT22;1093;51.424;11.764;2022-07-29T03:53:40;16.00;1.40
2174;DHT22;1093;51.424;11.764;2022-07-29T03:56:10;15.90;1.40
2174;DHT22;1093;51.424;11.764;2022-07-29T03:58:38;15.90;1.40
2174;DHT22;1093;51.424;11.764;2022-07-29T04:01:06;15.90;1.40
2174;DHT22;1093;51.424;11.764;2022-07-29T04:03:33;16.00;1.40
2174;DHT22;1093;51.424;11.764;2022-07-29T04:06:02;16.00;1.40
2174;DHT22;1093;51.424;11.764;2022-07-29T04:08:31;16.00;1.40
2174;DHT22;1093;51.424;11.764;2022-07-29T04:10:58;16.00;1.40
2174;DHT22;1093;51.424;11.764;2022-07-29T04:13:26;16.00;1.40
2174;DHT22;1093;51.424;11.764;2022-07-29T04:15:53;15.90;1.40
2174;DHT22;1093;51.424;11.764;2022-07-29T04:18:20;16.00;1.40
2174;DHT22;1093;51.424;11.764;2022-07-29T04:20:47;16.00;1.40
2174;DHT22;1093;51.424;11.764;2022-07-29T04:23:13;16.00;1.40
2174;DHT22;1093;51.424;11.764;2022-07-29T04:25:41;16.00;1.40
2174;DHT22;1093;51.424;11.764;2022-07-29T04:28:09;16.00;1.40
2174;DHT22;1093;51.424;11.764;2022-07-29T04:30:37;16.00;1.40
2174;DHT22;1093;51.424;11.764;2022-07-29T04:33:06;16.00;1.40
2174;DHT22;1093;51.424;11.764;2022-07-29T04:35:34;16.10;1.40
2174;DHT22;1093;51.424;11.764;2022-07-29T04:38:01;16.20;1.40
2174;DHT22;1093;51.424;11.764;2022-07-29T04:40:28;16.20;1.40
2174;DHT22;1093;51.424;11.764;2022-07-29T04:42:55;16.20;1.40
2174;DHT22;1093;51.424;11.764;2022-07-29T04:45:22;16.20;1.40
2174;DHT22;1093;51.424;11.764;2022-07-29T04:47:50;16.30;1.40
2174;DHT22;1093;51.424;11.764;2022-07-29T04:50:17;16.30;1.40
2174;DHT22;1093;51.424;11.764;2022-07-29T04:52:44;16.30;1.40
2174;DHT22;1093;51.424;11.764;2022-07-29T04:55:11;16.30;1.40
2174;DHT22;1093;51.424;11.764;2022-07-29T04:57:37;16.40;1.40
2174;DHT22;1093;51.424;11.764;2022-07-29T05:00:06;16.40;1.40
2174;DHT22;1093;51.424;11.764;2022-07-29T05:02:33;16.40;1.40
2174;DHT22;1093;51.424;11.764;2022-07-29T05:05:01;16.40;1.40
2174;DHT22;1093;51.424;11.764;2022-07-29T05:07:27;16.50;1.40
2174;DHT22;1093;51.424;11.764;2022-07-29T05:09:54;16.50;1.40
2174;DHT22;1093;51.424;11.764;2022-07-29T05:12:22;16.50;1.40
2174;DHT22;1093;51.424;11.764;2022-07-29T05:14:49;16.60;1.40
2174;DHT22;1093;51.424;11.764;2022-07-29T05:17:15;16.70;1.40
2174;DHT22;1093;51.424;11.764;2022-07-29T05:19:42;16.80;1.40
2174;DHT22;1093;51.424;11.764;2022-07-29T05:22:10;16.80;1.40
2174;DHT22;1093;51.424;11.764;2022-07-29T05:24:37;16.90;1.40
2174;DHT22;1093;51.424;11.764;2022-07-29T05:27:04;17.00;1.40
2174;DHT22;1093;51.424;11.764;2022-07-29T05:29:30;17.10;1.40
2174;DHT22;1093;51.424;11.764;2022-07-29T05:31:57;17.00;1.40
2174;DHT22;1093;51.424;11.764;2022-07-29T05:34:24;17.00;1.40
2174;DHT22;1093;51.424;11.764;2022-07-29T05:36:51;17.10;1.40
2174;DHT22;1093;51.424;11.764;2022-07-29T05:39:20;17.20;1.40
2174;DHT22;1093;51.424;11.764;2022-07-29T05:41:46;17.20;1.40
2174;DHT22;1093;51.424;11.764;2022-07-29T05:44:13;17.20;1.40
2174;DHT22;1093;51.424;11.764;2022-07-29T05:46:40;17.20;1.40
2174;DHT22;1093;51.424;11.764;2022-07-29T05:49:07;17.30;1.40
2174;DHT22;1093;51.424;11.764;2022-07-29T05:51:34;17.40;1.40
2174;DHT22;1093;51.424;11.764;2022-07-29T05:54:01;17.50;1.40
2174;DHT22;1093;51.424;11.764;2022-07-29T05:56:30;17.50;1.40
2174;DHT22;1093;51.424;11.764;2022-07-29T05:58:57;17.60;1.40
2174;DHT22;1093;51.424;11.764;2022-07-29T06:01:23;17.60;1.40
2174;DHT22;1093;51.424;11.764;2022-07-29T06:03:50;17.60;1.40
2174;DHT22;1093;51.424;11.764;2022-07-29T06:06:17;17.60;1.40
2174;DHT22;1093;51.424;11.764;2022-07-29T06:08:43;17.60;1.40
2174;DHT22;1093;51.424;11.764;2022-07-29T06:11:10;17.70;1.40
2174;DHT22;1093;51.424;11.764;2022-07-29T06:13:38;17.80;1.40
2174;DHT22;1093;51.424;11.764;2022-07-29T06:16:05;17.70;1.40
2174;DHT22;1093;51.424;11.764;2022-07-29T06:18:32;17.70;1.40
2174;DHT22;1093;51.424;11.764;2022-07-29T06:20:58;17.70;1.40
2174;DHT22;1093;51.424;11.764;2022-07-29T06:23:25;17.80;1.40
2174;DHT22;1093;51.424;11.764;2022-07-29T06:25:52;17.90;1.40
2174;DHT22;1093;51.424;11.764;2022-07-29T06:28:19;18.00;1.40
2174;DHT22;1093;51.424;11.764;2022-07-29T06:30:47;18.00;1.40
2174;DHT22;1093;51.424;11.764;2022-07-29T06:33:17;18.20;1.40
2174;DHT22;1093;51.424;11.764;2022-07-29T06:35:44;18.10;1.40
2174;DHT22;1093;51.424;11.764;2022-07-29T06:38:12;18.10;1.40
2174;DHT22;1093;51.424;11.764;2022-07-29T06:40:41;18.20;1.40
2174;DHT22;1093;51.424;11.764;2022-07-29T06:43:28;18.20;1.40
2174;DHT22;1093;51.424;11.764;2022-07-29T06:45:59;18.20;1.40
2174;DHT22;1093;51.424;11.764;2022-07-29T06:48:27;18.20;1.40
2174;DHT22;1093;51.424;11.764;2022-07-29T06:50:54;18.30;1.40
2174;DHT22;1093;51.424;11.764;2022-07-29T06:53:21;18.40;1.40
2174;DHT22;1093;51.424;11.764;2022-07-29T06:55:48;18.50;1.40
2174;DHT22;1093;51.424;11.764;2022-07-29T06:58:15;18.60;1.40
2174;DHT22;1093;51.424;11.764;2022-07-29T07:00:43;18.80;1.40
2174;DHT22;1093;51.424;11.764;2022-07-29T07:03:11;18.80;1.40
2174;DHT22;1093;51.424;11.764;2022-07-29T07:05:38;18.90;1.40
2174;DHT22;1093;51.424;11.764;2022-07-29T07:08:05;19.10;1.40
2174;DHT22;1093;51.424;11.764;2022-07-29T07:10:32;19.10;1.40
2174;DHT22;1093;51.424;11.764;2022-07-29T07:12:59;19.20;1.40
2174;DHT22;1093;51.424;11.764;2022-07-29T07:15:26;19.20;1.40
2174;DHT22;1093;51.424;11.764;2022-07-29T07:17:53;19.40;1.40
2174;DHT22;1093;51.424;11.764;2022-07-29T07:20:21;19.50;1.40
2174;DHT22;1093;51.424;11.764;2022-07-29T07:22:48;19.70;1.40
2174;DHT22;1093;51.424;11.764;2022-07-29T07:25:14;19.80;1.40
2174;DHT22;1093;51.424;11.764;2022-07-29T07:27:43;19.80;1.40
2174;DHT22;1093;51.424;11.764;2022-07-29T07:30:10;19.80;1.40
2174;DHT22;1093;51.424;11.764;2022-07-29T07:32:37;20.00;1.40
2174;DHT22;1093;51.424;11.764;2022-07-29T07:35:04;20.10;1.40
2174;DHT22;1093;51.424;11.764;2022-07-29T07:37:33;20.20;1.40
2174;DHT22;1093;51.424;11.764;2022-07-29T07:40:00;20.20;1.40
2174;DHT22;1093;51.424;11.764;2022-07-29T07:42:27;20.30;1.40
2174;DHT22;1093;51.424;11.764;2022-07-29T07:44:54;20.30;1.40
2174;DHT22;1093;51.424;11.764;2022-07-29T07:47:21;20.30;1.40
2174;DHT22;1093;51.424;11.764;2022-07-29T07:49:49;20.40;1.40
2174;DHT22;1093;51.424;11.764;2022-07-29T07:52:17;20.40;1.40
2174;DHT22;1093;51.424;11.764;2022-07-29T07:54:45;20.30;1.40
2174;DHT22;1093;51.424;11.764;2022-07-29T07:57:12;20.40;1.40
2174;DHT22;1093;51.424;11.764;2022-07-29T07:59:39;20.50;1.40
2174;DHT22;1093;51.424;11.764;2022-07-29T08:02:06;20.60;1.40
2174;DHT22;1093;51.424;11.764;2022-07-29T08:04:33;20.80;1.40
2174;DHT22;1093;51.424;11.764;2022-07-29T08:07:01;20.90;1.40
2174;DHT22;1093;51.424;11.764;2022-07-29T08:09:29;21.00;1.40
2174;DHT22;1093;51.424;11.764;2022-07-29T08:11:57;21.10;1.40
2174;DHT22;1093;51.424;11.764;2022-07-29T08:14:25;21.20;1.40
2174;DHT22;1093;51.424;11.764;2022-07-29T08:16:51;21.20;1.40
2174;DHT22;1093;51.424;11.764;2022-07-29T08:19:19;21.30;1.40
2174;DHT22;1093;51.424;11.764;2022-07-29T08:21:45;21.40;1.40
2174;DHT22;1093;51.424;11.764;2022-07-29T08:24:12;21.60;1.40
2174;DHT22;1093;51.424;11.764;2022-07-29T08:26:58;21.60;1.40
2174;DHT22;1093;51.424;11.764;2022-07-29T08:29:25;21.80;1.40
2174;DHT22;1093;51.424;11.764;2022-07-29T08:31:52;22.00;1.40
2174;DHT22;1093;51.424;11.764;2022-07-29T08:34:18;22.20;1.40
2174;DHT22;1093;51.424;11.764;2022-07-29T08:36:45;22.40;1.40
2174;DHT22;1093;51.424;11.764;2022-07-29T08:39:12;22.50;1.40
2174;DHT22;1093;51.424;11.764;2022-07-29T08:41:39;22.70;1.40
2174;DHT22;1093;51.424;11.764;2022-07-29T08:44:07;22.90;1.40
2174;DHT22;1093;51.424;11.764;2022-07-29T08:46:37;23.10;1.40
2174;DHT22;1093;51.424;11.764;2022-07-29T08:49:04;23.40;1.40
2174;DHT22;1093;51.424;11.764;2022-07-29T08:51:32;23.50;1.40
2174;DHT22;1093;51.424;11.764;2022-07-29T08:54:00;23.80;1.40
2174;DHT22;1093;51.424;11.764;2022-07-29T08:56:28;24.00;1.40
2174;DHT22;1093;51.424;11.764;2022-07-29T08:58:57;24.20;1.40
2174;DHT22;1093;51.424;11.764;2022-07-29T09:01:27;24.40;1.40
2174;DHT22;1093;51.424;11.764;2022-07-29T09:03:56;24.80;1.40
2174;DHT22;1093;51.424;11.764;2022-07-29T09:06:28;24.90;1.40
2174;DHT22;1093;51.424;11.764;2022-07-29T09:08:59;25.20;1.40
2174;DHT22;1093;51.424;11.764;2022-07-29T09:11:26;25.50;1.40
2174;DHT22;1093;51.424;11.764;2022-07-29T09:13:53;25.70;1.40
2174;DHT22;1093;51.424;11.764;2022-07-29T09:16:19;25.90;1.40
2174;DHT22;1093;51.424;11.764;2022-07-29T09:18:48;26.20;1.40
2174;DHT22;1093;51.424;11.764;2022-07-29T09:21:16;26.20;1.40
2174;DHT22;1093;51.424;11.764;2022-07-29T09:24:03;26.20;1.40
2174;DHT22;1093;51.424;11.764;2022-07-29T09:26:31;26.50;1.40
2174;DHT22;1093;51.424;11.764;2022-07-29T09:28:59;26.70;1.40
2174;DHT22;1093;51.424;11.764;2022-07-29T09:31:44;26.90;1.40
2174;DHT22;1093;51.424;11.764;2022-07-29T09:34:15;27.10;1.40
2174;DHT22;1093;51.424;11.764;2022-07-29T09:36:43;27.20;1.40
2174;DHT22;1093;51.424;11.764;2022-07-29T09:39:11;27.50;1.40
2174;DHT22;1093;51.424;11.764;2022-07-29T09:41:46;27.70;1.40
2174;DHT22;1093;51.424;11.764;2022-07-29T09:44:12;27.80;1.40
2174;DHT22;1093;51.424;11.764;2022-07-29T09:46:40;27.90;1.40
2174;DHT22;1093;51.424;11.764;2022-07-29T09:49:09;27.90;1.40
2174;DHT22;1093;51.424;11.764;2022-07-29T09:51:38;28.00;1.40
2174;DHT22;1093;51.424;11.764;2022-07-29T09:54:21;28.20;1.40
2174;DHT22;1093;51.424;11.764;2022-07-29T09:56:48;28.20;1.40
2174;DHT22;1093;51.424;11.764;2022-07-29T09:59:14;28.20;1.40
2174;DHT22;1093;51.424;11.764;2022-07-29T10:01:41;28.40;1.40
2174;DHT22;1093;51.424;11.764;2022-07-29T10:04:08;28.50;1.40
2174;DHT22;1093;51.424;11.764;2022-07-29T10:06:55;28.60;1.40
2174;DHT22;1093;51.424;11.764;2022-07-29T10:09:22;28.50;1.40
2174;DHT22;1093;51.424;11.764;2022-07-29T10:12:06;28.70;1.40
2174;DHT22;1093;51.424;11.764;2022-07-29T10:14:34;28.70;1.40
2174;DHT22;1093;51.424;11.764;2022-07-29T10:17:03;28.80;1.40
2174;DHT22;1093;51.424;11.764;2022-07-29T10:19:31;28.80;1.40
2174;DHT22;1093;51.424;11.764;2022-07-29T10:22:01;28.90;1.40
2174;DHT22;1093;51.424;11.764;2022-07-29T10:24:30;28.90;1.40
2174;DHT22;1093;51.424;11.764;2022-07-29T10:26:59;29.00;1.40
2174;DHT22;1093;51.424;11.764;2022-07-29T10:29:26;28.90;1.40
2174;DHT22;1093;51.424;11.764;2022-07-29T10:32:08;29.00;1.40
2174;DHT22;1093;51.424;11.764;2022-07-29T10:34:50;29.10;1.40
2174;DHT22;1093;51.424;11.764;2022-07-29T10:37:31;29.10;1.40
2174;DHT22;1093;51.424;11.764;2022-07-29T10:40:04;29.00;1.40
2174;DHT22;1093;51.424;11.764;2022-07-29T10:42:55;29.00;1.40
2174;DHT22;1093;51.424;11.764;2022-07-29T10:45:25;29.20;1.40
2174;DHT22;1093;51.424;11.764;2022-07-29T10:48:03;29.20;1.40
2174;DHT22;1093;51.424;11.764;2022-07-29T10:50:52;29.20;1.40
2174;DHT22;1093;51.424;11.764;2022-07-29T10:53:20;29.40;1.40
2174;DHT22;1093;51.424;11.764;2022-07-29T10:55:49;29.50;1.40
2174;DHT22;1093;51.424;11.764;2022-07-29T10:58:18;29.50;1.40
2174;DHT22;1093;51.424;11.764;2022-07-29T11:00:47;29.40;1.40
2174;DHT22;1093;51.424;11.764;2022-07-29T11:03:42;29.60;1.40
2174;DHT22;1093;51.424;11.764;2022-07-29T11:06:09;29.70;1.40
2174;DHT22;1093;51.424;11.764;2022-07-29T11:08:37;29.70;1.40
2174;DHT22;1093;51.424;11.764;2022-07-29T11:11:34;29.70;1.40
2174;DHT22;1093;51.424;11.764;2022-07-29T11:14:02;29.90;1.40
2174;DHT22;1093;51.424;11.764;2022-07-29T11:16:58;29.90;1.40
2174;DHT22;1093;51.424;11.764;2022-07-29T11:19:24;29.90;1.40
2174;DHT22;1093;51.424;11.764;2022-07-29T11:21:51;29.80;1.40
2174;DHT22;1093;51.424;11.764;2022-07-29T11:24:21;29.80;1.40
2174;DHT22;1093;51.424;11.764;2022-07-29T11:27:12;30.10;1.40
2174;DHT22;1093;51.424;11.764;2022-07-29T11:29:47;30.20;1.40
2174;DHT22;1093;51.424;11.764;2022-07-29T11:32:15;30.20;1.40
2174;DHT22;1093;51.424;11.764;2022-07-29T11:34:45;30.40;1.40
2174;DHT22;1093;51.424;11.764;2022-07-29T11:37:20;30.40;1.40
2174;DHT22;1093;51.424;11.764;2022-07-29T11:40:15;30.30;1.40
2174;DHT22;1093;51.424;11.764;2022-07-29T11:42:45;30.50;1.40
2174;DHT22;1093;51.424;11.764;2022-07-29T11:45:14;30.60;1.40
2174;DHT22;1093;51.424;11.764;2022-07-29T11:47:47;30.60;1.40
2174;DHT22;1093;51.424;11.764;2022-07-29T11:50:18;30.50;1.40
2174;DHT22;1093;51.424;11.764;2022-07-29T11:52:52;30.50;1.40
2174;DHT22;1093;51.424;11.764;2022-07-29T11:55:22;30.40;1.40
2174;DHT22;1093;51.424;11.764;2022-07-29T11:57:50;30.40;1.40
2174;DHT22;1093;51.424;11.764;2022-07-29T12:00:23;30.60;1.40
2174;DHT22;1093;51.424;11.764;2022-07-29T12:02:52;30.80;1.40
2174;DHT22;1093;51.424;11.764;2022-07-29T12:05:19;30.70;1.40
2174;DHT22;1093;51.424;11.764;2022-07-29T12:07:46;30.60;1.40
2174;DHT22;1093;51.424;11.764;2022-07-29T12:10:14;30.50;1.40
2174;DHT22;1093;51.424;11.764;2022-07-29T12:12:42;30.60;1.40
2174;DHT22;1093;51.424;11.764;2022-07-29T12:15:16;30.80;1.40
2174;DHT22;1093;51.424;11.764;2022-07-29T12:17:46;31.00;1.40
2174;DHT22;1093;51.424;11.764;2022-07-29T12:20:14;31.10;1.40
2174;DHT22;1093;51.424;11.764;2022-07-29T12:22:48;31.20;1.40
2174;DHT22;1093;51.424;11.764;2022-07-29T12:25:14;31.10;1.40
2174;DHT22;1093;51.424;11.764;2022-07-29T12:27:44;31.10;1.40
2174;DHT22;1093;51.424;11.764;2022-07-29T12:30:13;30.90;1.40
2174;DHT22;1093;51.424;11.764;2022-07-29T12:32:43;30.80;1.40
2174;DHT22;1093;51.424;11.764;2022-07-29T12:35:13;30.80;1.40
2174;DHT22;1093;51.424;11.764;2022-07-29T12:37:41;30.70;1.40
2174;DHT22;1093;51.424;11.764;2022-07-29T12:40:09;30.80;1.40
2174;DHT22;1093;51.424;11.764;2022-07-29T12:42:37;30.80;1.40
2174;DHT22;1093;51.424;11.764;2022-07-29T12:45:06;30.70;1.40
2174;DHT22;1093;51.424;11.764;2022-07-29T12:47:33;30.80;1.40
2174;DHT22;1093;51.424;11.764;2022-07-29T12:50:17;30.60;1.40
2174;DHT22;1093;51.424;11.764;2022-07-29T12:52:44;30.60;1.40
2174;DHT22;1093;51.424;11.764;2022-07-29T12:55:11;30.50;1.40
2174;DHT22;1093;51.424;11.764;2022-07-29T12:57:45;30.50;1.40
2174;DHT22;1093;51.424;11.764;2022-07-29T13:00:15;30.60;1.40
2174;DHT22;1093;51.424;11.764;2022-07-29T13:02:43;30.50;1.40
2174;DHT22;1093;51.424;11.764;2022-07-29T13:05:10;30.40;1.40
2174;DHT22;1093;51.424;11.764;2022-07-29T13:07:38;30.40;1.40
2174;DHT22;1093;51.424;11.764;2022-07-29T13:10:14;30.50;1.40
2174;DHT22;1093;51.424;11.764;2022-07-29T13:13:02;30.40;1.40
2174;DHT22;1093;51.424;11.764;2022-07-29T13:15:31;30.50;1.40
2174;DHT22;1093;51.424;11.764;2022-07-29T13:17:58;30.60;1.40
2174;DHT22;1093;51.424;11.764;2022-07-29T13:20:28;30.60;1.40
2174;DHT22;1093;51.424;11.764;2022-07-29T13:22:56;30.40;1.40
2174;DHT22;1093;51.424;11.764;2022-07-29T13:25:24;30.40;1.40
2174;DHT22;1093;51.424;11.764;2022-07-29T13:27:51;30.40;1.40
2174;DHT22;1093;51.424;11.764;2022-07-29T13:30:20;30.40;1.40
2174;DHT22;1093;51.424;11.764;2022-07-29T13:32:48;30.40;1.40
2174;DHT22;1093;51.424;11.764;2022-07-29T13:35:15;30.40;1.40
2174;DHT22;1093;51.424;11.764;2022-07-29T13:37:42;30.50;1.40
2174;DHT22;1093;51.424;11.764;2022-07-29T13:40:10;30.50;1.40
2174;DHT22;1093;51.424;11.764;2022-07-29T13:42:37;30.50;1.40
2174;DHT22;1093;51.424;11.764;2022-07-29T13:45:05;30.60;1.40
2174;DHT22;1093;51.424;11.764;2022-07-29T13:47:33;30.60;1.40
2174;DHT22;1093;51.424;11.764;2022-07-29T13:50:02;30.70;1.40
2174;DHT22;1093;51.424;11.764;2022-07-29T13:52:29;30.80;1.40
2174;DHT22;1093;51.424;11.764;2022-07-29T13:54:56;30.80;1.40
2174;DHT22;1093;51.424;11.764;2022-07-29T13:57:23;30.90;1.40
2174;DHT22;1093;51.424;11.764;2022-07-29T13:59:50;30.70;1.40
2174;DHT22;1093;51.424;11.764;2022-07-29T14:02:17;30.90;1.40
2174;DHT22;1093;51.424;11.764;2022-07-29T14:04:44;31.00;1.40
2174;DHT22;1093;51.424;11.764;2022-07-29T14:07:12;31.10;1.40
2174;DHT22;1093;51.424;11.764;2022-07-29T14:09:39;31.10;1.40
2174;DHT22;1093;51.424;11.764;2022-07-29T14:12:06;31.30;1.40
2174;DHT22;1093;51.424;11.764;2022-07-29T14:14:33;31.50;1.40
2174;DHT22;1093;51.424;11.764;2022-07-29T14:17:01;31.50;1.40
2174;DHT22;1093;51.424;11.764;2022-07-29T14:19:28;31.50;1.40
2174;DHT22;1093;51.424;11.764;2022-07-29T14:21:57;31.60;1.40
2174;DHT22;1093;51.424;11.764;2022-07-29T14:24:25;31.60;1.40
2174;DHT22;1093;51.424;11.764;2022-07-29T14:26:52;31.50;1.40
2174;DHT22;1093;51.424;11.764;2022-07-29T14:29:18;31.70;1.40
2174;DHT22;1093;51.424;11.764;2022-07-29T14:31:45;31.70;1.40
2174;DHT22;1093;51.424;11.764;2022-07-29T14:34:12;31.70;1.40
2174;DHT22;1093;51.424;11.764;2022-07-29T14:36:40;31.80;1.40
2174;DHT22;1093;51.424;11.764;2022-07-29T14:39:07;31.90;1.40
2174;DHT22;1093;51.424;11.764;2022-07-29T14:41:35;31.70;1.40
2174;DHT22;1093;51.424;11.764;2022-07-29T14:44:03;31.50;1.40
2174;DHT22;1093;51.424;11.764;2022-07-29T14:46:30;31.50;1.40
2174;DHT22;1093;51.424;11.764;2022-07-29T14:48:57;31.50;1.40
2174;DHT22;1093;51.424;11.764;2022-07-29T14:51:24;31.40;1.40
2174;DHT22;1093;51.424;11.764;2022-07-29T14:53:50;31.50;1.40
2174;DHT22;1093;51.424;11.764;2022-07-29T14:56:17;31.50;1.40
2174;DHT22;1093;51.424;11.764;2022-07-29T14:58:45;31.60;1.40
2174;DHT22;1093;51.424;11.764;2022-07-29T15:01:12;31.80;1.40
2174;DHT22;1093;51.424;11.764;2022-07-29T15:03:39;31.80;1.40
2174;DHT22;1093;51.424;11.764;2022-07-29T15:06:06;31.80;1.40
2174;DHT22;1093;51.424;11.764;2022-07-29T15:08:33;31.80;1.40
2174;DHT22;1093;51.424;11.764;2022-07-29T15:11:00;31.70;1.40
2174;DHT22;1093;51.424;11.764;2022-07-29T15:13:26;31.60;1.40
2174;DHT22;1093;51.424;11.764;2022-07-29T15:15:55;31.60;1.40
2174;DHT22;1093;51.424;11.764;2022-07-29T15:18:21;31.70;1.40
2174;DHT22;1093;51.424;11.764;2022-07-29T15:20:48;31.50;1.40
2174;DHT22;1093;51.424;11.764;2022-07-29T15:23:15;31.50;1.40
2174;DHT22;1093;51.424;11.764;2022-07-29T15:25:42;31.40;1.40
2174;DHT22;1093;51.424;11.764;2022-07-29T15:28:08;31.50;1.40
2174;DHT22;1093;51.424;11.764;2022-07-29T15:30:36;31.50;1.40
2174;DHT22;1093;51.424;11.764;2022-07-29T15:33:08;31.50;1.40
2174;DHT22;1093;51.424;11.764;2022-07-29T15:35:35;31.50;1.40
2174;DHT22;1093;51.424;11.764;2022-07-29T15:38:02;31.50;1.40
2174;DHT22;1093;51.424;11.764;2022-07-29T15:40:29;31.50;1.40
2174;DHT22;1093;51.424;11.764;2022-07-29T15:42:56;31.50;1.40
2174;DHT22;1093;51.424;11.764;2022-07-29T15:45:23;31.60;1.40
2174;DHT22;1093;51.424;11.764;2022-07-29T15:47:49;31.50;1.40
2174;DHT22;1093;51.424;11.764;2022-07-29T15:50:17;31.50;1.40
2174;DHT22;1093;51.424;11.764;2022-07-29T15:52:44;31.40;1.40
2174;DHT22;1093;51.424;11.764;2022-07-29T15:55:11;31.50;1.40
2174;DHT22;1093;51.424;11.764;2022-07-29T15:57:39;31.50;1.40
2174;DHT22;1093;51.424;11.764;2022-07-29T16:00:08;31.60;1.40
2174;DHT22;1093;51.424;11.764;2022-07-29T16:02:35;31.50;1.40
2174;DHT22;1093;51.424;11.764;2022-07-29T16:05:02;31.50;1.40
2174;DHT22;1093;51.424;11.764;2022-07-29T16:07:31;31.50;1.40
2174;DHT22;1093;51.424;11.764;2022-07-29T16:09:57;31.60;1.40
2174;DHT22;1093;51.424;11.764;2022-07-29T16:12:24;31.60;1.40
2174;DHT22;1093;51.424;11.764;2022-07-29T16:14:51;31.60;1.40
2174;DHT22;1093;51.424;11.764;2022-07-29T16:17:18;31.70;1.40